• Join FlightAware (Why Join?)
  • Login
  • US Flag 
07:49PM EST


 

Airport Tracker/Info


-or-


 

Live Flight TrackerFlight Track Log ✈ DAL1028 ✈ 08-Jul-2013 ✈ KATL - KJFK

Flight Track Log - Related Links

Times and Time Zones

All times are in EDT time to prevent confusion due to time zone crossing. See the DAL1028 flight status page for this flight to view local times or setup timezone preferences in your user account.

Time Position Orientation Groundspeed Altitude Reporting Facility
EDT Latitude Longitude Course Direction KTS MPH feet Rate Location/Type
01:40PM 33.6333 -84.5000 64° Northeast 211 243 2,500  Level Atlanta TRACON
01:40PM 33.6075 -84.5403 232° Southwest 464 534 3,700 2,460 Climbing Atlanta Center
01:41PM 33.5467 -84.5922 215° Southwest 295 339 6,600 2,760 Climbing Atlanta Center
01:42PM 33.7145 -84.0204 101° East  Level FlightAware Approximate
01:42PM 33.4717 -84.5717 167° South 279 321 9,300  Level Atlanta Center
01:43PM 33.6923 -83.8865 101° East  Level FlightAware Approximate
01:43PM 33.4533 -84.4669 102° East 257 296 10,500  Level Atlanta Center
01:44PM 33.6699 -83.7527 101° East  Level FlightAware Approximate
01:44PM 33.4558 -84.3375 89° East 342 394 12,500  Level Atlanta Center
01:45PM 33.6554 -83.6201 64° Northeast  Level FlightAware Approximate
01:45PM 33.4831 -84.2106 76° East 389 448 15,100  Level Atlanta Center
01:46PM 33.5356 -84.0861 63° Northeast 394 453 17,400 1,980 Climbing Atlanta Center
01:47PM 33.5875 -83.9614 63° Northeast 411 473 19,100 1,620 Climbing Atlanta Center
01:48PM 33.6228 -83.8267 73° East 417 480 20,700 1,620 Climbing Atlanta Center
01:49PM 33.6539 -83.6819 75° East 437 503 22,400 1,740 Climbing Atlanta Center
01:50PM 33.7014 -83.5394 68° East 446 513 24,200 1,560 Climbing Atlanta Center
01:51PM 33.7572 -83.4042 64° Northeast 446 513 25,600 1,140 Climbing Atlanta Center
01:52PM 33.8064 -83.2789 65° Northeast 453 521 26,500 1,200 Climbing Atlanta Center
01:53PM 33.8639 -83.1358 64° Northeast 453 521 28,000 1,560 Climbing Atlanta Center
01:54PM 33.9214 -83.0000 63° Northeast 461 531 29,700 1,500 Climbing Atlanta Center
01:55PM 33.9764 -82.8564 65° Northeast 461 531 31,000 1,200 Climbing Atlanta Center
01:56PM 34.0292 -82.7178 65° Northeast 461 531 32,200 1,260 Climbing Atlanta Center
01:57PM 34.0903 -82.5764 62° Northeast 461 531 33,600 1,200 Climbing Atlanta Center
01:58PM 34.1489 -82.4272 65° Northeast 450 518 34,700 1,200 Climbing Atlanta Center
01:59PM 34.2014 -82.2931 65° Northeast 445 512 36,100 1,080 Climbing Atlanta Center
02:00PM 34.2536 -82.1639 64° Northeast 439 505 36,900 360 Climbing Atlanta Center
02:01PM 34.3081 -82.0319 63° Northeast 428 493 36,900  Level Atlanta Center
02:02PM 34.3558 -81.8975 67° East 428 493 36,900  Level Atlanta Center
02:03PM 34.3908 -81.7556 73° East 428 493 36,900  Level Atlanta Center
02:04PM 34.4236 -81.6136 74° East 433 498 36,900  Level Atlanta Center
02:05PM 34.4478 -81.4644 79° East 433 498 36,900  Level Atlanta Center
02:06PM 34.4694 -81.3150 80° East 443 510 36,900  Level Atlanta Center
02:07PM 34.4894 -81.1833 80° East 443 510 36,900  Level Atlanta Center
02:08PM 34.5150 -81.0264 79° East 455 524 36,900  Level Atlanta Center
02:09PM 34.5383 -80.8792 79° East 463 533 36,900  Level Atlanta Center
02:10PM 34.5656 -80.7217 78° East 458 527 36,900  Level Atlanta Center
02:11PM 34.5906 -80.5694 79° East 465 535 36,900  Level Atlanta Center
02:12PM 34.6194 -80.4142 77° East 465 535 36,900  Level Atlanta Center
02:13PM 34.6328 -80.3347 78° East 469 540 36,900  Level Washington Center
02:14PM 34.6597 -80.1797 78° East 469 540 36,900  Level Washington Center
02:15PM 34.6889 -80.0097 78° East 469 540 36,900  Level Washington Center
02:16PM 34.7169 -79.8697 76° East 469 540 36,900  Level Washington Center
02:17PM 34.7539 -79.7150 74° East 469 540 36,900  Level Washington Center
02:18PM 34.7942 -79.5678 72° East 469 540 36,900  Level Washington Center
02:19PM 34.8389 -79.4131 71° East 469 540 36,900  Level Washington Center
02:20PM 34.8833 -79.2606 70° East 475 547 36,900  Level Washington Center
02:21PM 34.9297 -79.1108 69° East 475 547 36,900  Level Washington Center
02:22PM 34.9756 -78.9608 70° East 475 547 36,900  Level Washington Center
02:23PM 35.0217 -78.8081 70° East 475 547 36,900  Level Washington Center
02:24PM 35.0714 -78.6550 68° East 480 552 36,900  Level Washington Center
02:25PM 35.1192 -78.5019 69° East 480 552 36,900  Level Washington Center
02:26PM 35.1728 -78.3539 66° East 480 552 36,900  Level Washington Center
02:27PM 35.2242 -78.2008 68° East 480 552 36,900  Level Washington Center
02:28PM 35.2758 -78.0294 70° East 488 562 36,900  Level Washington Center
02:29PM 35.2978 -77.8672 81° East 482 555 36,900  Level Washington Center
02:30PM 35.3194 -77.7050 81° East 482 555 36,900  Level Washington Center
02:31PM 35.3431 -77.5400 80° East 482 555 36,900  Level Washington Center
02:32PM 35.3644 -77.3750 81° East 482 555 36,900  Level Washington Center
02:33PM 35.3878 -77.2125 80° East 482 555 36,900  Level Washington Center
02:34PM 35.4106 -77.0497 80° East 482 555 36,900  Level Washington Center
02:35PM 35.4519 -76.8950 72° East 482 555 36,900  Level Washington Center
02:36PM 35.5617 -76.7997 35° Northeast 453 521 36,900  Level Washington Center
02:37PM 35.6686 -76.7478 22° Northeast 438 504 36,900  Level Washington Center
02:38PM 35.7942 -76.6931 19° North 456 525 36,900  Level Washington Center
02:39PM 35.9200 -76.6386 19° North 467 537 36,900  Level Washington Center
02:40PM 36.0456 -76.5811 20° North 472 543 36,900  Level Washington Center
02:41PM 36.1753 -76.5261 19° North 477 549 36,900  Level Washington Center
02:42PM 36.3031 -76.4683 20° North 477 549 36,900  Level Washington Center
02:43PM 36.4328 -76.4103 20° North 482 555 36,900  Level Washington Center
02:44PM 36.5625 -76.3547 19° North 489 563 36,900  Level Washington Center
02:45PM 36.6922 -76.2964 20° North 489 563 36,900  Level Washington Center
02:46PM 36.8367 -76.2200 23° Northeast 489 563 36,900  Level Washington Center
02:47PM 36.9622 -76.1431 26° Northeast 494 568 36,900  Level Washington Center
02:48PM 37.0958 -76.0683 24° Northeast 509 586 36,900  Level Washington Center
02:49PM 37.2214 -75.9883 27° Northeast 504 580 36,900  Level Washington Center
02:50PM 37.3489 -75.9106 26° Northeast 504 580 36,900  Level Washington Center
02:51PM 37.4764 -75.8325 26° Northeast 504 580 36,900  Level Washington Center
02:52PM 37.6036 -75.7517 27° Northeast 504 580 36,900  Level Washington Center
02:53PM 37.7311 -75.6758 25° Northeast 504 580 36,900  Level Washington Center
02:54PM 37.8583 -75.5944 27° Northeast 499 574 36,900  Level Washington Center
02:55PM 37.9833 -75.5153 27° Northeast 499 574 36,900  Level Washington Center
02:56PM 38.1125 -75.4386 25° Northeast 509 586 36,900  Level Washington Center
02:57PM 38.2417 -75.3592 26° Northeast 509 586 36,900  Level Washington Center
02:58PM 38.3583 -75.2739 30° Northeast 509 586 36,900  Level Washington Center
02:59PM 38.4894 -75.1939 26° Northeast 509 586 36,900  Level Washington Center
03:00PM 38.6164 -75.1133 26° Northeast 509 586 36,900  Level Washington Center
03:01PM 38.7431 -75.0275 28° Northeast 509 586 36,900  Level Washington Center
03:02PM 38.8739 -74.9464 26° Northeast 509 586 36,900 -1,080 Level Washington Center
03:03PM 39.0006 -74.8650 27° Northeast 509 586 34,800 -3,180 Descending Washington Center
03:04PM 39.1292 -74.7647 31° Northeast 516 594 30,500 -3,780 Descending Washington Center
03:05PM 39.2408 -74.6431 40° Northeast 526 605 27,300 -3,420 Descending Washington Center
03:07PM 39.4117 -74.4603 40° Northeast 505 581 21,700 -3,360 Descending New York Center
03:08PM 39.5242 -74.3342 41° Northeast 494 568 18,700 -1,980 Descending New York Center
03:09PM 39.6103 -74.2417 40° Northeast 462 532 17,900 -660 Descending New York Center
03:10PM 39.7075 -74.1978 19° North 394 453 17,500 -1,020 Descending New York Center
03:11PM 39.8125 -74.1678 12° North 368 423 15,900 -1,560 Descending New York Center
03:12PM 39.8778 -74.0736 48° Northeast 347 399 14,400 -1,500 Descending New York Center
03:13PM 39.9342 -73.9897 49° Northeast 338 389 12,900 -1,380 Descending New York Center
03:14PM 39.9972 -73.8950 49° Northeast 338 389 11,700 -1,200 Descending New York Center
03:15PM 40.0722 -73.8169 39° Northeast 325 374 10,500 -1,380 Descending New York Center
03:16PM 40.1328 -73.7303 48° Northeast 320 368 9,000 -1,680 Descending New York Center
03:17PM 40.2044 -73.6978 19° North 297 342 7,200 -1,800 Descending New York Center